Time;durP1;ratioP1;P1;durP2;ratioP2;P2;SDS_P1;SDS_P2;PMS_P1;PMS_P2;Temp;Humidity;BMP_temperature;BMP_pressure;BME280_temperature;BME280_humidity;BME280_pressure;Samples;Min_cycle;Max_cycle;Signal;HPM_P1;HPM_P2
2021/04/12 00:01:22;;;;;;;3.03;1.50;;;15.80;94.90;;;;;;5078621;28;20102;-66
2021/04/12 00:03:48;;;;;;;;;;;15.80;95.00;;;;;;5061769;28;20043;-66
2021/04/12 00:06:39;;;;;;;6.70;1.95;;;15.80;95.10;;;;;;5073508;28;20308;-67
2021/04/12 00:09:32;;;;;;;4.65;1.88;;;15.80;95.00;;;;;;5042035;28;20045;-67
2021/04/12 00:12:14;;;;;;;3.45;1.60;;;15.80;94.90;;;;;;5088508;28;20030;-66
2021/04/12 00:14:52;;;;;;;4.47;1.67;;;15.80;95.20;;;;;;5072459;28;20208;-66
2021/04/12 00:17:19;;;;;;;6.35;1.60;;;15.80;95.30;;;;;;5073190;28;20036;-64
2021/04/12 00:19:59;;;;;;;4.05;1.52;;;15.70;95.30;;;;;;5073888;28;20094;-65
2021/04/12 00:22:36;;;;;;;4.03;1.65;;;15.70;95.40;;;;;;5072607;28;20032;-65
2021/04/12 00:25:08;;;;;;;3.10;1.50;;;15.70;95.60;;;;;;5091063;28;20034;-65
2021/04/12 00:27:38;;;;;;;2.25;1.50;;;15.70;95.80;;;;;;5091275;28;20036;-62
2021/04/12 00:30:16;;;;;;;3.33;1.30;;;15.70;96.10;;;;;;5092973;28;20028;-63
2021/04/12 00:32:57;;;;;;;6.13;1.30;;;15.70;95.90;;;;;;5092711;28;20518;-61
2021/04/12 00:35:35;;;;;;;3.03;1.35;;;15.70;96.00;;;;;;5064401;28;20052;-61
2021/04/12 00:38:01;;;;;;;3.58;1.35;;;15.70;96.00;;;;;;5074644;28;20024;-60
2021/04/12 00:40:50;;;;;;;3.65;1.50;;;15.60;96.10;;;;;;5092455;28;20105;-61
2021/04/12 00:43:27;;;;;;;3.22;1.30;;;15.60;95.70;;;;;;5087711;28;20116;-62
2021/04/12 00:46:11;;;;;;;8.32;1.50;;;15.60;96.10;;;;;;5086331;28;20021;-61
2021/04/12 00:48:40;;;;;;;;;;;15.60;96.20;;;;;;5072746;28;20170;-62
2021/04/12 00:51:43;;;;;;;2.65;1.40;;;15.60;96.10;;;;;;5054396;28;19950;-69
2021/04/12 00:54:43;;;;;;;4.80;1.33;;;15.60;96.10;;;;;;5083685;28;20031;-65
2021/04/12 00:57:33;;;;;;;2.63;1.35;;;15.60;96.90;;;;;;5092201;28;20502;-61
2021/04/12 01:00:06;;;;;;;2.28;1.20;;;15.60;96.00;;;;;;5073012;28;20119;-61
2021/04/12 01:02:59;;;;;;;3.17;1.25;;;15.60;96.60;;;;;;5077132;28;20040;-62
2021/04/12 01:05:43;;;;;;;2.25;1.38;;;15.60;96.00;;;;;;5072096;28;20100;-61
2021/04/12 01:08:48;;;;;;;4.68;1.50;;;15.50;96.50;;;;;;5089104;28;20472;-61
2021/04/12 01:12:10;;;;;;;3.78;1.40;;;15.50;96.30;;;;;;4998577;28;20049;-62
2021/04/12 01:14:57;;;;;;;4.03;1.58;;;15.50;96.70;;;;;;5005684;28;20041;-60
2021/04/12 01:17:49;;;;;;;2.58;1.30;;;15.50;96.70;;;;;;5011260;28;20029;-60
2021/04/12 01:20:27;;;;;;;4.15;1.70;;;15.40;96.80;;;;;;5078870;28;20036;-63
2021/04/12 01:23:40;;;;;;;3.55;1.60;;;15.40;96.80;;;;;;5091886;28;20395;-61
2021/04/12 01:26:26;;;;;;;3.63;1.50;;;15.40;96.90;;;;;;5043097;28;20047;-65
2021/04/12 01:29:22;;;;;;;5.15;1.33;;;15.40;97.00;;;;;;5078354;28;20025;-61
2021/04/12 01:32:03;;;;;;;3.65;1.33;;;15.40;97.10;;;;;;5054162;28;20025;-62
2021/04/12 01:34:43;;;;;;;5.43;1.60;;;15.40;97.00;;;;;;5085927;28;20517;-60
2021/04/12 01:37:44;;;;;;;2.65;1.42;;;15.40;97.10;;;;;;5091602;28;20425;-62
2021/04/12 01:40:24;;;;;;;2.13;1.30;;;15.30;97.00;;;;;;5085044;28;20048;-61
2021/04/12 01:42:59;;;;;;;3.65;1.35;;;15.30;97.10;;;;;;5075940;28;20116;-63
2021/04/12 01:45:34;;;;;;;4.78;1.50;;;15.30;97.10;;;;;;5072007;28;20028;-61
2021/04/12 01:48:11;;;;;;;4.03;1.30;;;15.30;97.10;;;;;;5071549;28;20120;-63
2021/04/12 01:50:58;;;;;;;2.35;1.33;;;15.30;97.40;;;;;;5083330;28;20024;-60
2021/04/12 01:54:14;;;;;;;3.35;1.38;;;15.30;97.50;;;;;;5091751;28;20020;-64
2021/04/12 01:56:58;;;;;;;2.17;1.40;;;15.20;97.40;;;;;;5058797;28;20131;-61
2021/04/12 01:59:46;;;;;;;3.28;1.50;;;15.30;97.80;;;;;;5081893;28;20170;-63
2021/04/12 02:02:31;;;;;;;6.28;1.77;;;15.20;97.50;;;;;;5079176;28;20020;-61
2021/04/12 02:05:34;;;;;;;4.63;1.50;;;15.20;97.60;;;;;;5096092;28;20043;-61
2021/04/12 02:08:22;;;;;;;6.68;1.73;;;15.20;97.80;;;;;;5078075;28;20028;-61
2021/04/12 02:11:02;;;;;;;3.33;1.35;;;15.20;97.90;;;;;;5074029;28;20422;-61
2021/04/12 02:13:41;;;;;;;4.43;1.48;;;15.10;98.00;;;;;;5058065;28;20065;-61
2021/04/12 02:16:22;;;;;;;3.67;1.35;;;15.20;97.80;;;;;;5080895;28;20392;-68
2021/04/12 02:18:57;;;;;;;3.17;1.30;;;15.20;98.00;;;;;;5075284;28;20028;-66
2021/04/12 02:21:47;;;;;;;3.10;1.45;;;15.10;98.10;;;;;;5075417;28;20493;-66
2021/04/12 02:24:40;;;;;;;2.92;1.40;;;15.10;97.80;;;;;;5087165;28;20074;-68
2021/04/12 02:27:17;;;;;;;4.93;1.70;;;15.10;99.20;;;;;;5095060;28;20039;-69
2021/04/12 02:29:45;;;;;;;7.35;1.75;;;15.10;98.60;;;;;;5095378;28;20042;-69
2021/04/12 02:32:32;;;;;;;3.35;1.73;;;15.10;99.00;;;;;;5095408;28;20028;-68
2021/04/12 02:35:05;;;;;;;5.03;1.63;;;15.20;99.10;;;;;;5076554;28;20036;-68
2021/04/12 02:37:56;;;;;;;3.10;1.73;;;15.10;98.60;;;;;;5084303;28;20387;-68
2021/04/12 02:40:36;;;;;;;4.00;1.80;;;15.10;98.80;;;;;;5080510;28;20028;-68
2021/04/12 02:43:17;;;;;;;11.40;1.88;;;15.10;98.90;;;;;;5066596;28;20562;-68
2021/04/12 02:45:54;;;;;;;4.65;1.58;;;15.00;99.20;;;;;;5054722;28;20040;-62
2021/04/12 02:48:20;;;;;;;5.47;1.55;;;15.00;98.50;;;;;;5064822;28;20023;-61
2021/04/12 02:51:15;;;;;;;3.65;1.90;;;15.00;98.50;;;;;;5089668;28;20409;-62
2021/04/12 02:54:18;;;;;;;5.00;1.85;;;15.00;99.20;;;;;;5051969;28;20047;-61
2021/04/12 02:57:08;;;;;;;5.22;1.80;;;15.00;98.10;;;;;;5081075;28;20511;-62
2021/04/12 02:59:51;;;;;;;3.70;1.63;;;15.00;99.20;;;;;;5056627;28;20040;-62
2021/04/12 03:02:20;;;;;;;7.13;1.70;;;15.00;99.20;;;;;;5090245;28;20020;-62
2021/04/12 03:05:00;;;;;;;5.13;1.63;;;14.90;99.10;;;;;;5092918;28;20103;-63
2021/04/12 03:07:44;;;;;;;2.80;1.75;;;14.90;99.10;;;;;;5074622;28;20070;-62
2021/04/12 03:10:18;;;;;;;4.72;1.50;;;14.90;98.70;;;;;;5085038;28;20027;-62
2021/04/12 03:13:13;;;;;;;5.53;1.90;;;14.90;99.10;;;;;;5094539;28;20392;-63
2021/04/12 03:15:57;;;;;;;6.93;1.60;;;14.90;99.10;;;;;;5083363;28;20052;-61
2021/04/12 03:19:00;;;;;;;3.70;1.60;;;14.90;99.00;;;;;;5074213;28;20025;-62
2021/04/12 03:21:50;;;;;;;2.78;1.40;;;14.90;98.70;;;;;;5078343;28;20032;-61
2021/04/12 03:24:39;;;;;;;3.88;1.73;;;14.80;98.90;;;;;;5081080;28;20515;-61
2021/04/12 03:27:50;;;;;;;2.90;1.70;;;14.80;98.90;;;;;;5065943;28;20036;-61
2021/04/12 03:30:57;;;;;;;4.55;1.70;;;14.80;98.70;;;;;;5082569;28;20029;-61
2021/04/12 03:33:34;;;;;;;2.47;1.42;;;14.80;98.90;;;;;;5079571;28;20036;-62
2021/04/12 03:36:32;;;;;;;3.03;1.70;;;14.80;98.90;;;;;;5074707;28;20124;-62
2021/04/12 03:39:03;;;;;;;4.68;1.50;;;14.80;99.00;;;;;;5075151;28;20025;-64
2021/04/12 03:41:54;;;;;;;2.35;1.80;;;14.70;99.10;;;;;;5094206;28;20035;-64
2021/04/12 03:44:39;;;;;;;3.85;1.65;;;14.70;98.60;;;;;;5093873;28;20040;-61
2021/04/12 03:47:36;;;;;;;2.78;1.67;;;14.70;99.00;;;;;;5093949;28;20043;-65
2021/04/12 03:50:02;;;;;;;3.20;2.00;;;14.70;99.20;;;;;;5074434;28;20043;-61
2021/04/12 03:52:47;;;;;;;2.47;1.58;;;14.70;98.70;;;;;;5073829;28;20480;-63
2021/04/12 03:55:51;;;;;;;3.28;1.67;;;14.70;99.00;;;;;;5053515;28;20457;-66
2021/04/12 03:58:25;;;;;;;4.35;1.65;;;14.70;99.00;;;;;;5007205;28;20131;-64
2021/04/12 04:00:57;;;;;;;3.63;1.73;;;14.70;99.00;;;;;;5066888;28;20020;-61
2021/04/12 04:03:31;;;;;;;5.45;1.60;;;14.70;98.80;;;;;;5090642;28;20028;-65
2021/04/12 04:06:19;;;;;;;3.22;1.55;;;14.60;99.00;;;;;;5093445;28;20429;-62
2021/04/12 04:09:13;;;;;;;4.05;1.42;;;14.60;99.30;;;;;;5087402;28;20043;-61
2021/04/12 04:11:49;;;;;;;2.92;1.92;;;14.60;99.20;;;;;;5093255;28;20077;-61
2021/04/12 04:14:33;;;;;;;3.67;1.50;;;14.60;99.00;;;;;;5086446;28;20028;-67
2021/04/12 04:17:22;;;;;;;2.92;1.52;;;14.60;99.20;;;;;;5092180;28;20028;-67
2021/04/12 04:19:51;;;;;;;3.92;1.60;;;14.60;99.30;;;;;;5093181;28;20025;-65
2021/04/12 04:22:42;;;;;;;2.30;1.83;;;14.60;98.70;;;;;;5076635;28;20445;-66
2021/04/12 04:25:16;;;;;;;2.95;1.40;;;14.60;99.20;;;;;;5072844;28;20060;-63
2021/04/12 04:28:22;;;;;;;2.25;1.60;;;14.50;99.10;;;;;;5071880;28;20039;-63
2021/04/12 04:31:29;;;;;;;4.43;1.73;;;14.50;99.10;;;;;;5092881;28;20384;-66
2021/04/12 04:34:11;;;;;;;6.20;1.90;;;14.50;99.10;;;;;;5092444;28;20109;-65
2021/04/12 04:36:59;;;;;;;2.95;1.70;;;14.50;99.00;;;;;;5072468;28;20036;-65
2021/04/12 04:39:33;;;;;;;2.58;1.65;;;14.50;98.90;;;;;;5078695;28;20024;-68
2021/04/12 04:42:36;;;;;;;3.05;1.70;;;14.40;99.00;;;;;;5092299;28;20103;-67
2021/04/12 04:45:23;;;;;;;2.53;1.50;;;14.40;98.90;;;;;;5092940;28;20158;-68
2021/04/12 04:48:27;;;;;;;3.67;1.65;;;14.40;98.90;;;;;;5091798;28;20031;-69
2021/04/12 04:51:11;;;;;;;3.03;1.77;;;14.40;98.80;;;;;;5072433;28;20020;-69
2021/04/12 04:53:49;;;;;;;3.85;1.58;;;14.40;98.70;;;;;;5079434;28;20028;-67
2021/04/12 04:56:38;;;;;;;3.60;1.52;;;14.40;98.00;;;;;;5092929;28;20032;-65
2021/04/12 04:59:35;;;;;;;3.13;1.63;;;14.40;98.60;;;;;;5071615;28;20025;-60
2021/04/12 05:02:22;;;;;;;2.08;1.77;;;14.30;98.60;;;;;;5071822;28;20392;-66
2021/04/12 05:05:26;;;;;;;3.88;1.80;;;14.30;98.60;;;;;;5072383;28;20024;-61
2021/04/12 05:08:16;;;;;;;2.35;1.67;;;14.30;98.60;;;;;;5010795;28;20120;-62
2021/04/12 05:11:09;;;;;;;2.38;1.33;;;14.30;98.50;;;;;;5010336;28;20489;-60
2021/04/12 05:13:59;;;;;;;2.15;1.58;;;14.30;98.50;;;;;;5057535;28;20135;-60
2021/04/12 05:16:44;;;;;;;2.60;1.70;;;14.20;98.30;;;;;;5072641;28;20037;-62
2021/04/12 05:19:39;;;;;;;4.05;1.60;;;14.20;98.30;;;;;;5047394;28;20085;-62
2021/04/12 05:22:23;;;;;;;;;;;14.30;98.60;;;;;;5065302;28;20063;-60
2021/04/12 05:25:08;;;;;;;3.53;1.70;;;14.20;98.30;;;;;;5072908;28;19970;-62
2021/04/12 05:28:11;;;;;;;2.88;1.70;;;14.20;98.50;;;;;;5071698;28;20299;-60
2021/04/12 05:30:57;;;;;;;3.15;1.58;;;14.20;98.60;;;;;;5065817;28;20055;-61
2021/04/12 05:33:43;;;;;;;2.75;1.58;;;14.20;98.50;;;;;;5076989;28;20020;-61
2021/04/12 05:36:24;;;;;;;3.70;1.75;;;14.20;98.50;;;;;;5092413;28;20040;-60
2021/04/12 05:39:09;;;;;;;3.03;1.40;;;14.10;98.50;;;;;;5090134;28;20426;-61
2021/04/12 05:42:05;;;;;;;2.25;1.60;;;14.10;98.60;;;;;;5092461;28;20028;-60
2021/04/12 05:44:52;;;;;;;5.30;1.40;;;14.10;98.70;;;;;;5076503;28;20579;-60
2021/04/12 05:47:42;;;;;;;1.70;1.33;;;14.10;98.40;;;;;;5053664;28;20537;-62
2021/04/12 05:50:29;;;;;;;4.53;1.55;;;14.10;98.70;;;;;;5052067;28;20067;-60
2021/04/12 05:53:23;;;;;;;2.30;1.63;;;14.10;98.00;;;;;;5064917;28;20044;-67
2021/04/12 05:56:03;;;;;;;;;;;14.10;98.70;;;;;;5080113;28;20484;-62
2021/04/12 05:58:31;;;;;;;4.95;1.80;;;14.10;98.60;;;;;;5089150;28;20279;-62
2021/04/12 06:01:19;;;;;;;7.53;2.22;;;14.20;99.80;;;;;;5077097;28;20376;-64
2021/04/12 06:04:00;;;;;;;4.75;1.50;;;14.10;96.90;;;;;;5079701;28;20035;-64
2021/04/12 06:06:51;;;;;;;7.18;2.03;;;14.00;96.20;;;;;;5073664;28;20384;-60
2021/04/12 06:09:41;;;;;;;3.72;1.80;;;13.90;94.50;;;;;;5083906;28;20031;-64
2021/04/12 06:12:31;;;;;;;6.68;1.65;;;13.90;94.20;;;;;;5071899;28;20031;-63
2021/04/12 06:15:21;;;;;;;6.63;1.88;;;13.90;93.70;;;;;;5082114;28;20020;-62
2021/04/12 06:18:13;;;;;;;2.67;1.38;;;13.90;93.00;;;;;;5066447;28;20025;-68
2021/04/12 06:21:10;;;;;;;2.92;1.92;;;14.00;92.50;;;;;;5075056;28;20035;-64
2021/04/12 06:23:53;;;;;;;2.35;1.80;;;14.00;91.90;;;;;;5071420;28;20442;-63
2021/04/12 06:26:44;;;;;;;3.13;1.47;;;14.00;91.40;;;;;;5053437;28;20111;-64
2021/04/12 06:29:19;;;;;;;6.97;5.43;;;14.10;91.30;;;;;;5069009;28;20321;-69
2021/04/12 06:32:04;;;;;;;12.35;7.18;;;13.70;91.40;;;;;;5075000;28;20028;-67
2021/04/12 06:34:52;;;;;;;12.38;8.45;;;13.00;91.60;;;;;;5067585;28;20028;-69
2021/04/12 06:37:51;;;;;;;9.93;7.53;;;12.70;92.10;;;;;;5069460;28;20031;-66
2021/04/12 06:40:35;;;;;;;12.98;8.90;;;12.60;92.70;;;;;;5051243;28;20485;-70
2021/04/12 06:43:04;;;;;;;;;;;12.50;92.70;;;;;;5072475;28;20047;-70
2021/04/12 06:46:07;;;;;;;16.20;10.48;;;12.40;92.80;;;;;;5074693;28;19910;-69
2021/04/12 06:49:10;;;;;;;15.52;10.18;;;12.30;92.90;;;;;;5073573;28;20086;-69
2021/04/12 06:52:00;;;;;;;17.70;10.30;;;12.20;93.10;;;;;;5054693;28;20028;-67
2021/04/12 06:54:34;;;;;;;16.45;9.95;;;12.00;93.20;;;;;;5054699;28;20033;-70
2021/04/12 06:57:18;;;;;;;14.80;10.32;;;11.90;93.30;;;;;;5054589;28;20552;-70
2021/04/12 07:00:21;;;;;;;16.08;10.55;;;11.90;93.40;;;;;;5054624;28;20029;-65
2021/04/12 07:02:58;;;;;;;6.88;4.13;;;11.70;93.50;;;;;;5054765;28;20423;-72
2021/04/12 07:05:37;;;;;;;7.65;3.33;;;12.40;94.10;;;;;;5062538;28;20024;-73
2021/04/12 07:08:11;;;;;;;9.10;3.20;;;13.10;93.30;;;;;;5077357;28;20440;-72
2021/04/12 07:11:14;;;;;;;6.45;2.90;;;13.40;92.80;;;;;;5074754;28;20031;-71
2021/04/12 07:13:59;;;;;;;6.63;3.40;;;13.70;92.50;;;;;;5074905;28;20032;-72
2021/04/12 07:16:55;;;;;;;9.00;3.35;;;13.90;92.20;;;;;;5074441;28;20162;-67
2021/04/12 07:19:53;;;;;;;9.80;2.78;;;14.10;92.50;;;;;;5072682;28;20035;-70
2021/04/12 07:23:07;;;;;;;8.75;2.38;;;15.40;91.10;;;;;;5040243;28;20041;-71
2021/04/12 07:25:42;;;;;;;9.43;2.15;;;16.70;89.70;;;;;;5075738;28;20056;-71
2021/04/12 07:29:01;;;;;;;5.60;2.20;;;17.60;87.70;;;;;;5093274;28;20028;-64
2021/04/12 07:31:53;;;;;;;7.95;1.88;;;18.30;86.40;;;;;;5065271;28;20032;-65
2021/04/12 07:34:37;;;;;;;8.98;1.90;;;18.80;85.60;;;;;;5083405;28;20040;-65
2021/04/12 07:37:17;;;;;;;8.80;1.73;;;19.20;85.10;;;;;;5094185;28;20070;-61
2021/04/12 07:40:07;;;;;;;5.38;1.48;;;19.60;84.40;;;;;;5094500;28;20020;-62
2021/04/12 07:43:13;;;;;;;6.50;1.60;;;19.90;84.10;;;;;;5094129;28;20081;-67
2021/04/12 07:46:25;;;;;;;6.38;1.70;;;20.20;84.00;;;;;;5094061;28;20383;-64
2021/04/12 07:49:28;;;;;;;6.60;1.80;;;20.60;83.20;;;;;;5061459;28;20051;-64
2021/04/12 07:52:31;;;;;;;4.93;2.40;;;20.30;84.30;;;;;;5072461;28;20032;-65
2021/04/12 07:55:14;;;;;;;6.88;2.72;;;20.00;85.30;;;;;;5073325;28;20044;-62
2021/04/12 07:58:11;;;;;;;8.83;3.73;;;20.50;84.60;;;;;;5073643;28;20031;-61
2021/04/12 08:01:14;;;;;;;12.48;5.20;;;20.20;85.80;;;;;;5073376;28;20274;-64
2021/04/12 08:04:17;;;;;;;10.55;4.65;;;19.50;88.20;;;;;;5073534;28;20020;-68
2021/04/12 08:06:58;;;;;;;11.13;4.85;;;20.40;87.30;;;;;;5073599;28;20032;-68
2021/04/12 08:10:01;;;;;;;10.00;5.45;;;20.50;87.50;;;;;;5073250;28;20048;-69
2021/04/12 08:13:01;;;;;;;9.73;5.03;;;19.80;90.50;;;;;;5073225;28;20560;-71
2021/04/12 08:16:06;;;;;;;11.30;5.53;;;20.30;89.40;;;;;;5073103;28;20043;-70
2021/04/12 08:18:47;;;;;;;12.98;6.28;;;20.60;89.00;;;;;;5072462;28;20033;-70
2021/04/12 08:21:40;;;;;;;13.23;6.05;;;20.00;90.80;;;;;;5073533;28;20107;-69
2021/04/12 08:24:35;;;;;;;11.80;6.10;;;20.10;90.40;;;;;;5073005;28;20033;-63
2021/04/12 08:27:18;;;;;;;13.68;6.80;;;20.70;89.90;;;;;;5073057;28;20174;-68
2021/04/12 08:30:02;;;;;;;12.70;6.43;;;20.20;91.20;;;;;;5055446;28;20025;-70
2021/04/12 08:33:05;;;;;;;12.88;6.72;;;20.00;91.10;;;;;;5052915;28;20259;-67
2021/04/12 08:36:00;;;;;;;12.88;6.30;;;20.80;90.40;;;;;;5068285;28;20083;-67
2021/04/12 08:38:25;;;;;;;;;;;20.40;91.70;;;;;;5093413;28;20031;-65
2021/04/12 08:41:18;;;;;;;15.25;7.50;;;20.00;92.10;;;;;;5092935;28;20348;-67
2021/04/12 08:44:38;;;;;;;14.20;7.05;;;20.60;91.10;;;;;;5093237;28;20020;-65
2021/04/12 08:47:41;;;;;;;13.65;7.43;;;20.60;91.70;;;;;;5060218;28;20028;-68
2021/04/12 08:50:22;;;;;;;16.63;7.60;;;20.10;92.30;;;;;;5092895;28;20024;-67
2021/04/12 08:53:16;;;;;;;14.90;7.78;;;20.50;91.70;;;;;;5093005;28;20052;-67
2021/04/12 08:56:07;;;;;;;18.60;7.47;;;20.80;91.80;;;;;;5092605;28;20033;-61
2021/04/12 08:59:07;;;;;;;12.40;7.38;;;20.40;92.60;;;;;;5092521;28;20024;-72
2021/04/12 09:02:10;;;;;;;17.05;8.02;;;20.00;92.60;;;;;;5068236;28;20078;-66
2021/04/12 09:05:26;;;;;;;15.18;7.18;;;21.00;91.60;;;;;;5072356;28;20036;-62
2021/04/12 09:08:10;;;;;;;18.20;7.97;;;20.70;92.50;;;;;;5051838;28;20432;-60
2021/04/12 09:11:05;;;;;;;13.57;7.43;;;20.30;93.20;;;;;;5052366;28;20025;-62
2021/04/12 09:14:17;;;;;;;14.48;7.55;;;20.50;92.60;;;;;;5052201;28;20058;-61
2021/04/12 09:17:01;;;;;;;16.77;7.50;;;20.80;92.50;;;;;;5050895;28;20523;-62
2021/04/12 09:20:04;;;;;;;14.13;7.78;;;20.60;93.00;;;;;;5052200;28;20052;-62
2021/04/12 09:23:02;;;;;;;18.10;7.55;;;20.30;93.30;;;;;;5051912;28;20025;-62
2021/04/12 09:26:06;;;;;;;16.33;7.63;;;21.00;92.50;;;;;;5006057;28;20065;-62
2021/04/12 09:29:16;;;;;;;15.38;7.70;;;20.90;93.10;;;;;;5052060;28;20052;-60
2021/04/12 09:32:00;;;;;;;14.38;7.90;;;20.60;93.40;;;;;;5028566;28;20033;-67
2021/04/12 09:35:04;;;;;;;13.95;7.85;;;20.40;93.70;;;;;;5052185;28;20029;-68
2021/04/12 09:38:00;;;;;;;15.07;7.90;;;21.00;92.80;;;;;;4983773;28;20035;-65
2021/04/12 09:41:02;;;;;;;14.82;8.00;;;20.80;93.70;;;;;;5051759;28;20473;-66
2021/04/12 09:43:31;;;;;;;15.90;8.18;;;20.60;93.60;;;;;;5051829;28;20064;-60
2021/04/12 09:46:27;;;;;;;16.55;8.30;;;20.40;93.90;;;;;;5055796;28;20016;-61
2021/04/12 09:49:21;;;;;;;16.52;7.57;;;21.10;93.00;;;;;;5071842;28;20021;-62
2021/04/12 09:52:41;;;;;;;13.52;7.82;;;20.90;93.60;;;;;;5071965;28;20025;-62
2021/04/12 09:55:51;;;;;;;13.00;7.80;;;20.70;93.90;;;;;;5071624;28;20052;-60
2021/04/12 09:58:36;;;;;;;17.35;8.18;;;20.50;94.20;;;;;;5071736;28;20027;-65
2021/04/12 10:01:26;;;;;;;13.45;7.28;;;21.10;93.20;;;;;;5073288;28;20431;-64
2021/04/12 10:04:19;;;;;;;15.35;7.80;;;21.10;93.60;;;;;;5072502;28;20036;-68
2021/04/12 10:06:53;;;;;;;15.00;7.30;;;20.90;93.80;;;;;;5070498;28;20033;-66
2021/04/12 10:09:45;;;;;;;14.38;7.32;;;20.70;93.50;;;;;;5071917;28;20017;-67
2021/04/12 10:12:46;;;;;;;12.68;7.53;;;20.70;93.90;;;;;;5071562;28;20086;-60
2021/04/12 10:15:17;;;;;;;13.25;7.43;;;21.20;93.50;;;;;;5071721;28;20438;-70
2021/04/12 10:17:52;;;;;;;13.20;7.22;;;21.10;93.90;;;;;;5072528;28;20468;-65
2021/04/12 10:20:32;;;;;;;14.15;7.95;;;20.90;93.70;;;;;;5075365;28;20031;-65
2021/04/12 10:22:59;;;;;;;13.50;7.38;;;20.70;94.10;;;;;;5075224;28;20029;-64
2021/04/12 10:25:48;;;;;;;12.52;6.95;;;20.70;94.10;;;;;;5075457;28;20056;-62
2021/04/12 10:28:34;;;;;;;13.93;7.55;;;21.30;93.50;;;;;;5075302;28;20032;-60
2021/04/12 10:31:33;;;;;;;15.18;7.45;;;21.10;93.60;;;;;;5077632;28;20391;-73
2021/04/12 10:34:40;;;;;;;13.40;7.00;;;20.80;93.40;;;;;;5080079;28;20112;-74
2021/04/12 10:37:16;;;;;;;12.68;8.45;;;20.60;93.60;;;;;;4993634;28;20070;-73
2021/04/12 10:39:55;;;;;;;17.95;8.90;;;20.40;93.70;;;;;;5065912;28;20503;-66
2021/04/12 10:42:35;;;;;;;15.18;8.38;;;20.30;93.90;;;;;;5094313;28;20043;-73
2021/04/12 10:45:18;;;;;;;14.88;8.98;;;20.10;92.70;;;;;;5064209;28;20039;-60
2021/04/12 10:48:14;;;;;;;14.73;8.63;;;20.00;93.20;;;;;;5073624;28;20031;-73
2021/04/12 10:51:00;;;;;;;15.82;8.75;;;19.80;92.20;;;;;;5071161;28;20069;-61
2021/04/12 10:53:56;;;;;;;15.68;8.65;;;19.80;92.10;;;;;;5074842;28;20060;-62
2021/04/12 10:56:43;;;;;;;16.77;9.07;;;19.80;92.80;;;;;;5074528;28;20037;-65
2021/04/12 10:59:37;;;;;;;15.70;8.75;;;19.70;93.10;;;;;;5085729;28;20095;-63
2021/04/12 11:02:19;;;;;;;15.07;8.95;;;19.60;92.80;;;;;;5052160;28;20037;-67
2021/04/12 11:05:16;;;;;;;15.25;8.60;;;19.50;92.70;;;;;;5057276;28;20031;-66
2021/04/12 11:08:11;;;;;;;14.93;8.43;;;19.50;92.90;;;;;;5056541;28;20124;-64
2021/04/12 11:11:11;;;;;;;13.43;7.65;;;19.40;92.80;;;;;;5086057;28;20056;-72
2021/04/12 11:14:08;;;;;;;16.00;7.95;;;19.40;92.80;;;;;;5087608;28;20065;-66
2021/04/12 11:16:47;;;;;;;13.50;7.75;;;19.30;92.80;;;;;;5083931;28;20032;-70
2021/04/12 11:19:39;;;;;;;14.98;8.00;;;19.30;92.80;;;;;;5054182;28;20017;-66
2021/04/12 11:22:40;;;;;;;13.75;7.85;;;19.20;92.80;;;;;;5054431;28;20029;-71
2021/04/12 11:25:19;;;;;;;12.98;7.50;;;19.20;92.90;;;;;;5053212;28;20040;-67
2021/04/12 11:27:54;;;;;;;13.25;7.35;;;19.20;93.00;;;;;;5053842;28;20024;-63
2021/04/12 11:30:25;;;;;;;14.70;8.18;;;19.30;93.00;;;;;;5074609;28;20067;-66
2021/04/12 11:33:05;;;;;;;21.48;8.52;;;19.50;90.70;;;;;;5061744;28;20480;-70
2021/04/12 11:35:40;;;;;;;17.48;9.65;;;19.90;88.90;;;;;;5073853;28;20085;-68
2021/04/12 11:38:14;;;;;;;21.52;10.45;;;20.20;88.10;;;;;;5072918;28;20017;-69
2021/04/12 11:40:52;;;;;;;27.55;12.27;;;20.30;87.00;;;;;;5083499;28;20033;-66
2021/04/12 11:43:25;;;;;;;27.75;12.77;;;20.30;86.60;;;;;;5053919;28;20040;-69
2021/04/12 11:46:04;;;;;;;32.08;12.60;;;20.40;86.30;;;;;;5053923;28;20119;-69
2021/04/12 11:48:47;;;;;;;34.00;12.93;;;20.40;86.20;;;;;;5053940;28;20028;-68
2021/04/12 11:51:51;;;;;;;30.13;12.90;;;20.40;86.10;;;;;;5053713;28;20029;-70
2021/04/12 11:54:27;;;;;;;25.60;12.75;;;20.50;85.80;;;;;;5053579;28;20094;-73
2021/04/12 11:57:04;;;;;;;23.83;11.40;;;20.50;85.80;;;;;;5053570;28;20029;-72
2021/04/12 12:00:03;;;;;;;30.98;12.50;;;20.50;85.80;;;;;;5067789;28;20469;-73
2021/04/12 12:02:47;;;;;;;27.55;11.95;;;20.50;85.50;;;;;;5074073;28;20484;-70
2021/04/12 12:05:29;;;;;;;25.58;11.23;;;20.40;85.30;;;;;;5071570;28;20070;-71
2021/04/12 12:08:05;;;;;;;24.27;10.25;;;20.30;85.70;;;;;;5072345;28;20020;-64
2021/04/12 12:10:55;;;;;;;23.50;10.35;;;20.20;86.40;;;;;;5071503;28;20029;-64
2021/04/12 12:13:30;;;;;;;24.40;10.70;;;20.10;86.80;;;;;;5069872;28;20157;-66
2021/04/12 12:16:17;;;;;;;25.77;10.27;;;20.10;87.50;;;;;;5072153;28;20032;-67
2021/04/12 12:18:50;;;;;;;23.58;10.13;;;20.00;87.80;;;;;;5052915;28;20021;-68
2021/04/12 12:21:24;;;;;;;24.00;10.13;;;20.00;88.00;;;;;;5066089;28;20056;-67
2021/04/12 12:23:55;;;;;;;;;;;20.20;89.10;;;;;;5073357;28;20047;-69
2021/04/12 12:27:01;;;;;;;20.90;9.05;;;20.40;88.60;;;;;;5073038;28;19908;-64
2021/04/12 12:29:49;;;;;;;17.73;8.70;;;20.60;88.30;;;;;;5008482;28;20424;-65
2021/04/12 12:32:15;;;;;;;21.80;8.65;;;20.80;90.00;;;;;;5093221;28;20063;-65
2021/04/12 12:34:43;;;;;;;17.83;8.18;;;20.80;88.50;;;;;;5090428;28;20052;-67
2021/04/12 12:37:37;;;;;;;16.48;8.07;;;20.90;88.40;;;;;;5071915;28;20047;-66
2021/04/12 12:40:15;;;;;;;20.00;7.72;;;21.00;86.80;;;;;;5052751;28;20384;-67
2021/04/12 12:42:46;;;;;;;19.52;7.78;;;21.10;87.60;;;;;;5052073;28;20442;-67
2021/04/12 12:45:21;;;;;;;17.80;7.90;;;21.20;87.50;;;;;;5071337;28;20031;-65
2021/04/12 12:47:51;;;;;;;14.25;7.40;;;21.20;88.30;;;;;;5072616;28;20025;-67
2021/04/12 12:50:26;;;;;;;15.23;6.85;;;21.30;87.70;;;;;;5054687;28;20055;-65
2021/04/12 12:53:05;;;;;;;16.15;7.00;;;21.30;87.50;;;;;;5077202;28;20024;-67
2021/04/12 12:55:37;;;;;;;15.10;6.80;;;21.30;86.80;;;;;;5072710;28;20123;-64
2021/04/12 12:58:16;;;;;;;12.80;6.40;;;21.20;88.00;;;;;;5072319;28;20028;-66
2021/04/12 13:00:47;;;;;;;12.82;6.68;;;21.10;89.40;;;;;;5072540;28;20025;-66
2021/04/12 13:03:27;;;;;;;15.25;6.35;;;21.00;89.00;;;;;;5072324;28;20419;-66
2021/04/12 13:05:54;;;;;;;16.65;6.40;;;20.90;89.10;;;;;;5076999;28;20013;-65
2021/04/12 13:08:27;;;;;;;13.88;7.03;;;20.80;89.30;;;;;;5071280;28;20449;-64
2021/04/12 13:10:54;;;;;;;13.33;6.47;;;20.80;88.80;;;;;;5070867;28;20032;-66
2021/04/12 13:13:35;;;;;;;13.90;6.28;;;20.80;88.50;;;;;;5064743;28;20112;-64
2021/04/12 13:16:28;;;;;;;13.32;6.53;;;20.80;88.90;;;;;;5070373;28;20443;-67
2021/04/12 13:18:59;;;;;;;16.40;6.22;;;20.70;89.70;;;;;;5072105;28;20020;-68
2021/04/12 13:21:33;;;;;;;13.68;6.22;;;20.60;89.40;;;;;;5085410;28;20024;-66
2021/04/12 13:24:18;;;;;;;12.73;6.13;;;20.60;89.90;;;;;;5092592;28;20059;-68
2021/04/12 13:27:22;;;;;;;12.02;6.10;;;20.50;89.40;;;;;;5086389;28;20024;-67
2021/04/12 13:29:50;;;;;;;10.25;5.68;;;20.50;89.30;;;;;;5090106;28;20042;-66
2021/04/12 13:32:24;;;;;;;13.10;5.90;;;20.40;88.80;;;;;;5086841;28;20024;-68
2021/04/12 13:35:01;;;;;;;12.05;5.68;;;20.40;89.10;;;;;;5071372;28;20388;-70
2021/04/12 13:37:31;;;;;;;10.48;5.78;;;20.30;89.20;;;;;;5072329;28;20029;-68
2021/04/12 13:40:00;;;;;;;12.30;5.20;;;20.30;89.50;;;;;;5072039;28;20060;-65
2021/04/12 13:42:30;;;;;;;11.23;5.40;;;20.30;89.50;;;;;;5071697;28;20078;-65
2021/04/12 13:45:09;;;;;;;9.23;4.80;;;20.20;89.30;;;;;;5077528;28;20368;-63
2021/04/12 13:47:45;;;;;;;12.15;5.82;;;20.20;89.30;;;;;;5064727;28;20057;-65
2021/04/12 13:50:16;;;;;;;10.52;5.03;;;20.20;89.50;;;;;;5071820;28;20044;-66
2021/04/12 13:53:04;;;;;;;9.13;4.68;;;20.10;89.10;;;;;;5072768;28;20033;-65
2021/04/12 13:55:43;;;;;;;8.90;4.72;;;20.20;88.80;;;;;;5058262;28;20025;-66
2021/04/12 13:58:12;;;;;;;10.73;5.30;;;20.20;89.10;;;;;;5075811;28;20017;-67
2021/04/12 14:00:48;;;;;;;8.35;4.60;;;20.10;88.40;;;;;;5075707;28;20398;-71
2021/04/12 14:03:26;;;;;;;9.40;4.63;;;20.20;88.60;;;;;;5075926;28;20349;-69
2021/04/12 14:05:58;;;;;;;7.35;4.07;;;20.10;88.00;;;;;;5075668;28;20017;-72
2021/04/12 14:08:26;;;;;;;10.23;4.85;;;20.10;87.60;;;;;;5075749;28;20492;-70
2021/04/12 14:11:00;;;;;;;10.07;4.80;;;20.10;87.90;;;;;;5074748;28;20043;-70
2021/04/12 14:13:29;;;;;;;8.93;4.53;;;20.00;87.60;;;;;;5076214;28;20384;-69
2021/04/12 14:16:19;;;;;;;8.05;4.28;;;20.00;88.10;;;;;;5075393;28;20514;-69
2021/04/12 14:18:57;;;;;;;6.93;3.78;;;19.90;88.00;;;;;;5075505;28;20111;-71
2021/04/12 14:21:39;;;;;;;10.30;4.53;;;19.90;88.20;;;;;;5075559;28;20119;-72